Latest Weather Observations for Mardie

IDW60801

Issued at 1:04 pm WST Tuesday 29 September 2020 (issued every 10 minutes, with the page automatically refreshed every 10 minutes)

About weather observations | Map of weather stations | Latest weather observations for WA | Other Formats
Station Details ID: 005008 Name: MARDIE Lat: -21.19 Lon: 115.98 Height: 11.0 m
Data from the previous 72 hours. | See also: Recent months at Mardie
Date/Time
WST
Temp
°C
App
Temp
°C
Dew
Point
°C
Rel
Hum
%
Delta-T
°C
Wind Press
QNH
hPa
Press
MSL
hPa
Rain since
9am
mm
Dir  Spd
km/h
Gust
km/h
Spd
kts
Gust
kts
29/01:00pm 33.3 28.4 -3.8 9 17.0 NW 13 22 7 12 1012.2 1012.2 0.0
29/12:30pm 34.2 28.8 -4.7 8 17.7 WNW 15 26 8 14 1012.6 1012.6 0.0
29/12:00pm 34.4 30.9 -6.3 7 18.1 SSE 4 15 2 8 1013.0 1013.0 0.0
29/11:30am 33.3 29.3 -5.4 8 17.3 NNW 7 13 4 7 1013.4 1013.4 0.0
29/11:00am 32.4 29.1 -4.5 9 16.6 SE 4 9 2 5 1013.7 1013.7 0.0
29/10:30am 31.7 28.3 -2.3 11 15.8 NE 6 15 3 8 1014.0 1014.0 0.0
29/10:00am 31.3 26.8 -0.4 13 15.2 SE 13 20 7 11 1014.2 1014.2 0.0
29/09:30am 29.4 24.3 1.0 16 13.7 SSE 17 26 9 14 1014.6 1014.6 0.0
29/09:00am 28.6 23.7 2.0 18 13.0 SSE 17 24 9 13 1014.8 1014.8 0.0
29/08:30am 25.9 21.2 3.2 23 11.1 S 17 20 9 11 1015.0 1015.0 0.0
29/08:00am 23.1 18.8 3.1 27 9.6 SSW 15 17 8 9 1014.9 1014.9 0.0
29/07:30am 21.1 17.9 2.9 30 8.6 SSW 9 13 5 7 1015.0 1015.0 0.0
29/07:00am 18.8 15.5 2.6 34 7.5 SSW 9 13 5 7 1014.7 1014.7 0.0
29/06:30am 16.7 13.3 2.0 37 6.6 SSW 9 13 5 7 1014.0 1014.0 0.0
29/06:00am 16.4 12.2 1.7 37 6.5 SW 13 15 7 8 1013.7 1013.7 0.0
29/05:30am 17.4 12.8 1.8 35 7.0 SSW 15 19 8 10 1013.3 1013.3 0.0
29/05:00am 17.7 13.1 1.7 34 7.2 SSW 15 19 8 10 1012.9 1012.9 0.0
29/04:30am 17.9 13.3 1.8 34 7.2 SSW 15 19 8 10 1012.7 1012.7 0.0
29/04:00am 17.7 13.0 1.2 33 7.3 SSW 15 19 8 10 1012.7 1012.7 0.0
29/03:30am 17.8 12.8 1.3 33 7.3 SW 17 20 9 11 1012.5 1012.5 0.0
29/03:00am 17.6 12.9 0.7 32 7.4 SW 15 19 8 10 1012.7 1012.7 0.0
29/02:30am 18.3 13.6 0.9 31 7.7 SW 15 17 8 9 1012.8 1012.8 0.0
29/02:00am 18.8 14.9 0.9 30 8.0 SW 11 13 6 7 1012.9 1012.9 0.0
29/01:30am 19.5 15.6 1.0 29 8.3 SSW 11 13 6 7 1013.1 1013.1 0.0
29/01:00am 20.1 15.7 0.5 27 8.7 SSW 13 15 7 8 1013.3 1013.3 0.0
29/12:30am 20.4 15.6 0.3 26 9.0 SSW 15 17 8 9 1013.4 1013.4 0.0
29/12:00am 20.5 15.6 -0.2 25 9.1 SW 15 19 8 10 1013.6 1013.6 0.0
 
Date/Time
WST
Temp
°C
App
Temp
°C
Dew
Point
°C
Rel
Hum
%
Delta-T
°C
Wind Press
QNH
hPa
Press
MSL
hPa
Rain since
9am
mm
Dir  Spd
km/h
Gust
km/h
Spd
kts
Gust
kts
28/11:30pm 21.4 16.2 0.0 24 9.6 SW 17 19 9 10 1013.7 1013.7 0.0
28/11:00pm 22.0 17.2 -0.1 23 9.9 SW 15 17 8 9 1013.8 1013.8 0.0
28/10:30pm 22.9 18.0 -0.6 21 10.5 SW 15 17 8 9 1013.9 1013.9 0.0
28/10:00pm 23.4 18.5 -0.8 20 10.8 SW 15 19 8 10 1013.9 1013.9 0.0
28/09:30pm 24.0 19.3 -1.8 18 11.4 SW 13 17 7 9 1013.9 1013.9 0.0
28/09:00pm 24.8 20.0 -2.7 16 12.0 SW 13 17 7 9 1013.7 1013.7 0.0
28/08:30pm 25.4 20.8 -4.0 14 12.6 SW 11 15 6 8 1013.5 1013.5 0.0
28/08:00pm 26.2 21.2 -4.4 13 13.1 SW 13 17 7 9 1013.1 1013.1 0.0
28/07:30pm 27.7 22.3 -4.3 12 13.9 SW 15 19 8 10 1012.9 1012.9 0.0
28/07:00pm 29.0 23.2 -4.4 11 14.7 SW 17 22 9 12 1012.2 1012.2 0.0
28/06:30pm 30.3 23.9 -4.7 10 15.4 SW 20 28 11 15 1011.7 1011.7 0.0
28/06:00pm 31.6 24.4 -5.1 9 16.3 SW 24 32 13 17 1011.2 1011.2 0.0
28/05:30pm 32.4 24.4 -6.0 8 16.8 SW 28 37 15 20 1010.9 1010.9 0.0
28/05:00pm 33.1 24.9 -7.3 7 17.5 SW 28 37 15 20 1010.8 1010.8 0.0
28/04:30pm - - - - - SW 28 39 15 21 1010.7 1010.7 0.0
28/04:00pm - - - - - SW 33 44 18 24 1010.5 1010.5 0.0
28/03:35pm 33.9 26.3 -2.0 10 17.0 SW 28 48 15 26 1010.7 1010.7 0.0
28/03:30pm 34.1 25.6 -1.8 10 17.1 SSW 33 48 18 26 1010.6 1010.6 0.0
28/03:21pm 33.9 26.1 -0.7 11 16.8 SSW 30 48 16 26 1010.7 1010.7 0.0
28/03:00pm 33.8 25.6 -0.7 11 16.7 SW 32 44 17 24 1010.8 1010.8 0.0
28/02:30pm 34.1 26.0 0.7 12 16.6 SSW 33 46 18 25 1011.0 1011.0 0.0
28/02:00pm 33.2 25.7 1.1 13 16.0 SW 30 43 16 23 1011.2 1011.2 0.0
28/01:30pm 32.8 25.4 1.8 14 15.5 SW 30 48 16 26 1011.6 1011.6 0.0
28/01:26pm 33.1 25.6 1.0 13 15.9 SW 30 48 16 26 1011.5 1011.5 0.0
28/01:00pm 32.3 25.9 3.3 16 14.9 SSW 26 41 14 22 1012.1 1012.1 0.0
28/12:30pm 31.9 24.8 3.8 17 14.5 SSW 30 39 16 21 1012.5 1012.5 0.0
28/12:00pm 32.0 25.5 4.7 18 14.3 SSW 28 44 15 24 1013.0 1013.0 0.0
28/11:30am 30.9 23.8 5.3 20 13.5 SSW 32 39 17 21 1013.5 1013.5 0.0
28/11:00am 29.6 22.8 6.9 24 12.2 SSW 32 44 17 24 1014.1 1014.1 0.0
28/10:30am 29.2 22.4 7.7 26 11.7 SSW 33 44 18 24 1014.4 1014.4 0.0
28/10:00am 28.1 21.3 7.9 28 10.9 SSW 33 43 18 23 1014.8 1014.8 0.0
28/09:30am 27.1 20.7 8.5 31 10.1 SSW 32 41 17 22 1015.1 1015.1 0.0
28/09:00am 25.5 18.7 9.3 36 8.8 SSW 35 44 19 24 1015.3 1015.3 0.0
28/08:30am 24.0 17.8 9.9 41 7.7 SSW 33 41 18 22 1015.1 1015.1 0.0
28/08:00am 23.1 17.1 10.9 46 6.8 SSW 33 43 18 23 1015.2 1015.2 0.0
28/07:30am 21.5 15.4 10.6 50 6.0 SSW 33 43 18 23 1014.8 1014.8 0.0
28/07:00am 20.5 15.9 10.9 54 5.2 SW 26 33 14 18 1014.5 1014.5 0.0
28/06:30am 19.5 16.0 10.8 57 4.7 SW 20 28 11 15 1014.4 1014.4 0.0
28/06:00am 18.9 15.5 10.5 58 4.5 SW 19 26 10 14 1013.8 1013.8 0.0
28/05:30am 18.6 16.2 10.2 58 4.5 SW 13 17 7 9 1013.4 1013.4 0.0
28/05:00am 18.7 15.9 10.0 57 4.6 SW 15 19 8 10 1013.2 1013.2 0.0
28/04:30am 19.1 16.3 10.1 56 4.8 SW 15 20 8 11 1012.9 1012.9 0.0
28/04:00am 19.3 16.8 9.8 54 5.1 SW 13 17 7 9 1012.7 1012.7 0.0
28/03:30am 19.9 17.0 9.8 52 5.4 SW 15 17 8 9 1012.4 1012.4 0.0
28/03:00am 20.3 17.0 9.5 50 5.8 SW 17 22 9 12 1012.4 1012.4 0.0
28/02:30am 20.4 17.0 9.3 49 5.9 SW 17 20 9 11 1012.4 1012.4 0.0
28/02:00am 20.7 17.4 9.6 49 5.9 SW 17 22 9 12 1012.4 1012.4 0.0
28/01:30am 21.0 18.0 10.8 52 5.6 SW 17 20 9 11 1012.7 1012.7 0.0
28/01:00am 21.1 18.8 11.7 55 5.2 WSW 15 20 8 11 1012.9 1012.9 0.0
28/12:30am 21.4 19.0 12.8 58 4.9 WSW 17 22 9 12 1013.1 1013.1 0.0
28/12:00am 21.7 19.1 13.3 59 4.8 WSW 19 24 10 13 1013.4 1013.4 0.0
 
Date/Time
WST
Temp
°C
App
Temp
°C
Dew
Point
°C
Rel
Hum
%
Delta-T
°C
Wind Press
QNH
hPa
Press
MSL
hPa
Rain since
9am
mm
Dir  Spd
km/h
Gust
km/h
Spd
kts
Gust
kts
27/11:30pm 22.0 19.5 13.6 59 4.9 WSW 19 24 10 13 1013.4 1013.4 0.0
27/11:00pm 22.4 20.2 14.3 60 4.7 WSW 19 24 10 13 1013.3 1013.3 0.0
27/10:30pm 22.5 20.9 15.1 63 4.4 WSW 17 24 9 13 1013.5 1013.5 0.0
27/10:00pm 23.0 20.9 16.1 65 4.2 WSW 22 28 12 15 1013.5 1013.5 0.0
27/09:30pm 23.2 21.3 16.7 67 4.0 W 22 32 12 17 1013.5 1013.5 0.0
27/09:00pm 23.3 21.2 17.1 68 3.8 W 24 33 13 18 1013.2 1013.2 0.0
27/08:30pm 23.3 21.3 17.5 70 3.6 W 24 35 13 19 1013.0 1013.0 0.0
27/08:00pm 23.5 21.5 17.3 68 3.8 W 24 37 13 20 1012.8 1012.8 0.0
27/07:30pm 23.8 21.5 16.6 64 4.4 W 24 30 13 16 1012.5 1012.5 0.0
27/07:00pm 24.3 20.7 15.2 57 5.5 W 28 37 15 20 1012.1 1012.1 0.0
27/06:30pm 24.7 20.2 14.8 54 5.9 W 32 41 17 22 1011.4 1011.4 0.0
27/06:00pm 25.6 21.8 13.5 47 7.1 W 26 37 14 20 1011.1 1011.1 0.0
27/05:30pm 26.4 22.0 14.2 47 7.3 W 30 43 16 23 1010.9 1010.9 0.0
27/05:00pm 27.3 20.9 12.1 39 8.8 W 37 44 20 24 1010.6 1010.6 0.0
27/04:30pm 27.7 20.9 12.1 38 9.0 W 39 46 21 25 1010.6 1010.6 0.0
27/04:00pm 28.5 22.1 12.0 36 9.6 W 37 50 20 27 1010.5 1010.5 0.0
27/03:30pm 29.1 23.2 12.5 36 9.7 W 35 44 19 24 1010.4 1010.4 0.0
27/03:00pm 29.2 22.9 12.2 35 9.9 WNW 37 48 20 26 1010.5 1010.5 0.0
27/02:30pm 30.1 23.5 10.1 29 11.3 WNW 35 44 19 24 1010.5 1010.5 0.0
27/02:00pm 31.8 26.1 9.9 26 12.5 WNW 30 39 16 21 1010.8 1010.8 0.0
27/01:30pm 32.9 27.3 7.0 20 14.2 W 26 35 14 19 1010.8 1010.8 0.0
27/01:00pm 33.0 27.6 6.3 19 14.4 W 24 33 13 18 1011.3 1011.3 0.0
27/12:30pm 32.2 28.2 0.3 13 15.5 SW 11 20 6 11 1011.6 1011.6 0.0
27/12:00pm 32.4 28.9 1.5 14 15.4 WSW 9 19 5 10 1012.3 1012.3 0.0
27/11:30am 31.4 27.1 0.7 14 15.0 SSW 13 30 7 16 1012.8 1012.8 0.0
27/11:00am 30.2 26.5 2.5 17 13.8 SSW 11 22 6 12 1013.3 1013.3 0.0
27/10:30am 30.2 25.9 3.3 18 13.6 SSW 15 22 8 12 1013.7 1013.7 0.0
27/10:00am 28.6 24.2 4.8 22 12.2 S 17 28 9 15 1014.1 1014.1 0.0
27/09:30am 28.5 24.4 6.0 24 11.8 S 17 28 9 15 1014.2 1014.2 0.0
27/09:00am 26.0 21.3 6.1 28 10.3 S 20 28 11 15 1014.4 1014.4 0.0
27/08:30am 24.5 19.6 6.7 32 9.2 S 22 28 12 15 1014.5 1014.5 0.0
27/08:00am 22.4 17.8 6.6 36 8.1 S 20 28 11 15 1014.6 1014.6 0.0
27/07:30am 20.7 16.2 7.0 41 7.0 SSW 20 28 11 15 1014.7 1014.7 0.0
27/07:00am 19.2 15.3 7.3 46 6.0 SSW 17 20 9 11 1014.4 1014.4 0.0
27/06:30am 17.8 14.7 7.2 50 5.3 SSW 13 17 7 9 1014.2 1014.2 0.0
27/06:00am 17.6 14.6 7.6 52 5.0 SSW 13 17 7 9 1013.6 1013.6 0.0
27/05:30am 17.1 14.4 7.5 53 4.8 SSW 11 15 6 8 1013.3 1013.3 0.0
27/05:00am 17.5 14.5 7.5 52 5.0 SSW 13 17 7 9 1013.1 1013.1 0.0
27/04:30am 17.9 14.5 7.6 51 5.2 SSW 15 19 8 10 1012.8 1012.8 0.0
27/04:00am 18.1 15.5 7.8 51 5.2 SW 11 15 6 8 1012.5 1012.5 0.0
27/03:30am 18.6 15.7 8.0 50 5.4 SW 13 19 7 10 1012.3 1012.3 0.0
27/03:00am 19.0 15.3 8.1 49 5.6 SW 17 20 9 11 1012.1 1012.1 0.0
27/02:30am 19.1 15.4 8.1 49 5.7 SW 17 20 9 11 1012.1 1012.1 0.0
27/02:00am 19.5 16.0 8.8 50 5.6 SW 17 22 9 12 1012.1 1012.1 0.0
27/01:30am 19.9 16.6 9.5 51 5.5 WSW 17 22 9 12 1012.2 1012.2 0.0
27/01:00am 20.2 17.1 10.3 53 5.4 WSW 17 22 9 12 1012.4 1012.4 0.0
27/12:30am 20.6 17.1 11.0 54 5.3 WSW 20 28 11 15 1012.4 1012.4 0.0
27/12:00am 21.0 18.0 12.4 58 4.8 WSW 20 28 11 15 1012.7 1012.7 0.0
 
Date/Time
WST
Temp
°C
App
Temp
°C
Dew
Point
°C
Rel
Hum
%
Delta-T
°C
Wind Press
QNH
hPa
Press
MSL
hPa
Rain since
9am
mm
Dir  Spd
km/h
Gust
km/h
Spd
kts
Gust
kts
26/11:30pm 21.4 19.3 14.8 66 3.9 WSW 19 26 10 14 1012.8 1012.8 0.0
26/11:00pm 21.8 20.0 15.6 68 3.7 WSW 19 24 10 13 1012.9 1012.9 0.0
26/10:30pm 22.3 20.5 16.1 68 3.7 WSW 20 24 11 13 1012.8 1012.8 0.0
26/10:00pm 22.6 21.0 15.9 66 4.0 WSW 19 24 10 13 1012.8 1012.8 0.0
26/09:30pm 22.9 22.1 17.1 70 3.6 W 17 22 9 12 1012.7 1012.7 0.0
26/09:00pm 23.3 22.9 18.0 72 3.3 W 17 22 9 12 1012.5 1012.5 0.0
26/08:30pm 23.6 22.5 17.8 70 3.6 W 20 26 11 14 1012.3 1012.3 0.0
26/08:00pm 23.9 22.6 17.2 66 4.1 W 20 26 11 14 1012.0 1012.0 0.0
26/07:30pm 24.0 22.7 16.8 64 4.4 W 19 24 10 13 1011.6 1011.6 0.0
26/07:00pm 24.3 22.4 16.6 62 4.7 W 22 33 12 18 1011.1 1011.1 0.0
26/06:30pm 24.4 21.9 16.1 60 5.1 W 24 33 13 18 1010.8 1010.8 0.0
26/06:00pm 24.9 22.2 15.5 56 5.7 W 24 35 13 19 1010.3 1010.3 0.0
26/05:30pm 25.5 21.5 15.2 53 6.2 W 30 41 16 22 1010.1 1010.1 0.0
26/05:00pm 25.9 21.7 15.6 53 6.3 W 32 41 17 22 1009.9 1009.9 0.0
26/04:30pm 26.2 22.0 16.2 54 6.1 W 33 41 18 22 1010.0 1010.0 0.0
26/04:00pm 27.7 23.8 15.4 47 7.5 W 30 41 16 22 1009.9 1009.9 0.0
26/03:30pm 28.3 24.0 14.5 43 8.3 W 30 39 16 21 1009.8 1009.8 0.0
26/03:00pm 29.3 24.6 14.3 40 9.1 W 32 43 17 23 1010.0 1010.0 0.0
26/02:30pm 31.2 27.4 11.1 29 11.6 WSW 22 35 12 19 1010.1 1010.1 0.0
26/02:00pm 31.0 25.2 6.1 21 13.3 SW 26 39 14 21 1010.7 1010.7 0.0
26/01:30pm 30.9 25.2 6.7 22 13.0 SW 26 41 14 22 1011.0 1011.0 0.0

Other formats

Comma delimited format used in spreadsheet applications
http://www.bom.gov.au/fwo/IDW60801/IDW60801.94306.axf

JavaScript Object Notation format (JSON) in row-major order
http://www.bom.gov.au/fwo/IDW60801/IDW60801.94306.json

Data quality

Most of these data are generated automatically and are frequently updated. Quality checks on data are not normally performed. It is possible for incorrect values to appear. Refer to information at About Latest Weather Observations and please check the disclaimer before using these data.